Ophelia, Virginia
Current Conditions -  °F | °C
As of 5:53 PM on Wednesday 22 Oct 2014 (Local Time) from KNUI Reporting Station
Light Rain Light Rain  
Wind Chill: 54°   Ceiling: 1600
Heat Index: 54°   Visibility: 7mi
Dew Point: 49°   Wind: 10mph
Humidity: 83%   Direction: 330°NNW
Pressure: 29.87"   Gusts: 25mph
Location:  37.91°N, 76.28°W
Report Text: KNUI 222153Z AUTO 33009G22KT 280V020 7SM -RA BKN016 OVC021 12/09 A2987 RMK AO2 SLP114 P0001 T01220094
Loading
Personal Weather Stations






























Interactive Weather Map
Tropical Storm Tracking
New forecast layout! Learn more

10-Day Weather Forecast

Advertisements
Track Severe Weather on mobile